^^

Nearby METAR Reports

 

EGHH - Bournemouth Airp, United Kingdom
Distance from station: S 10mi, 17km
Updated: 21/05/2018 23:20
Partly cloudy
Partly cloudy
 Wind from WNW
Wind: WNW 5 mph , 7 km/h
Temperature: 11°C
Dew Point: 11°C
Humidity: 100%
Barometer: 1015 hPa
Clouds: Partly cloudy
Visibility: 4 miles , 6 km
2018/05/21 22:20 EGHH 212220Z 29004KT 6000 NSC 11/11 Q1015
EGDM - Boscombe Down, United Kingdom
Distance from station: N 16mi, 26km
Updated: 21/05/2018 22:50
Few Clouds
Few Clouds
 Wind from NNW
Wind: NNW 9 mph , 15 km/h
Temperature: 13°C
Dew Point: 10°C
Humidity: 82%
Barometer: 1015 hPa
Clouds: Few Clouds
Visibility: 6 miles , 10 km
Cloud details: Few Clouds 1524 m
2018/05/21 21:50 EGDM 212150Z AUTO 34008KT 9999 FEW050/// 13/10 Q1015
 
EGVP - Middle Wallop, United Kingdom
Distance from station: NE 17mi, 27km
Updated: 21/05/2018 22:50
Clear
Clear
 Wind from WNW
Wind: WNW 5 mph , 7 km/h
Temperature: 14°C
Dew Point: 10°C
Humidity: 77%
Barometer: 1015 hPa
Summary: Clear
Visibility: greater than 7 miles , 10 km
2018/05/21 21:50 EGVP 212150Z 30004KT CAVOK 14/10 Q1015 BLU NOSIG
EGHI - Southampton Wx C, United Kingdom
Distance from station: E 19mi, 31km
Updated: 21/05/2018 22:20
NOT Current
Few Clouds
Few Clouds
 Wind from varies
Wind: varies 2 mph , 4 km/h
Temperature: 12°C
Dew Point: 11°C
Humidity: 94%
Barometer: 1015 hPa
Clouds: Few Clouds
Visibility: 6 miles , 10 km
Cloud details: Few Clouds 792 m
2018/05/21 21:20 EGHI 212120Z VRB02KT 9999 FEW026 12/11 Q1015
 
EGDY - Yeovilton (navy), United Kingdom
Distance from station: W 36mi, 58km
Updated: 21/05/2018 22:50
Clear
Clear
 Wind from W
Wind: W 2 mph , 4 km/h
Temperature: 14°C
Dew Point: 12°C
Humidity: 88%
Barometer: 1015 hPa
Summary: Clear
Visibility: greater than 7 miles , 10 km
2018/05/21 21:50 EGDY 212150Z 27002KT CAVOK 14/12 Q1015 BLU NOSIG
EGUO - Colerne Raf, United Kingdom
Distance from station: NNW 41mi, 66km
Updated: 21/03/2018 08:50
NOT Current
Clear
Clear
 Wind from W
Wind: W 6 mph , 9 km/h
Temperature: 5°C
Wind Chill: 3°C
Dew Point: 1°C
Humidity: 76%
Barometer: 1032 hPa
Clouds: Clear
Visibility: 6 miles , 10 km
2018/03/21 08:50 EGUO 210850Z 27005KT 9999 NCD 05/01 Q1032 BLU NOSIG
 
EGVO - Odiham Raf, United Kingdom
Distance from station: ENE 42mi, 68km
Updated: 21/05/2018 22:50
Clear
Clear
 Wind from WNW
Wind: WNW 2 mph , 4 km/h
Temperature: 15°C
Dew Point: 11°C
Humidity: 77%
Barometer: 1014 hPa
Summary: Clear
Visibility: greater than 7 miles , 10 km
2018/05/21 21:50 EGVO 212150Z 29002KT CAVOK 15/11 Q1014 BLU NOSIG
EGGD - Bristol/Lulsgate, United Kingdom
Distance from station: NW 50mi, 81km
Updated: 21/05/2018 23:20
Clear
Clear
 Wind from NNW
Wind: NNW 7 mph , 11 km/h
Temperature: 14°C
Dew Point: 13°C
Humidity: 94%
Barometer: 1016 hPa
Clouds: Clear
Visibility: 6 miles , 10 km
2018/05/21 22:20 EGGD 212220Z AUTO 33006KT 9999 NCD 14/13 Q1016